Time;durP1;ratioP1;P1;durP2;ratioP2;P2;SDS_P1;SDS_P2;PMS_P1;PMS_P2;Temp;Humidity;BMP_temperature;BMP_pressure;BME280_temperature;BME280_humidity;BME280_pressure;Samples;Min_cycle;Max_cycle;Signal;HPM_P1;HPM_P2
2023/01/09 00:03:52;;;;;;;;;;;;;;;20.54;36.98;94028.66;10379585;28;2002;-43
2023/01/09 00:08:53;;;;;;;;;;;;;;;20.55;37.11;94045.22;10377669;28;2092;-42
2023/01/09 00:13:53;;;;;;;;;;;;;;;20.52;36.92;94066.91;10387449;28;2150;-45
2023/01/09 00:18:53;;;;;;;;;;;;;;;20.50;37.00;94082.25;10396128;28;2417;-43
2023/01/09 00:23:54;;;;;;;;;;;;;;;20.48;36.92;94082.56;10382852;28;1980;-47
2023/01/09 00:28:54;;;;;;;;;;;;;;;20.44;36.83;94055.31;10381100;28;2068;-43
2023/01/09 00:33:57;;;;;;;;;;;;;;;20.45;36.75;94070.00;10389803;28;2031;-45
2023/01/09 00:38:57;;;;;;;;;;;;;;;20.44;36.76;94075.59;10389472;28;2061;-43
2023/01/09 00:43:59;;;;;;;;;;;;;;;20.41;36.69;94079.63;10386514;28;2100;-45
2023/01/09 00:49:00;;;;;;;;;;;;;;;20.38;36.82;94061.81;10383388;28;2101;-42
2023/01/09 00:54:00;;;;;;;;;;;;;;;20.38;36.82;94077.59;10382935;28;2002;-44
2023/01/09 00:59:01;;;;;;;;;;;;;;;20.36;36.56;94071.88;10400185;28;2068;-45
2023/01/09 01:07:37;;;;;;;;;;;;;;;20.34;37.14;94060.88;10398107;28;2041;-44
2023/01/09 01:09:22;;;;;;;;;;;;;;;20.32;36.63;94052.53;10384085;28;1977;-43
2023/01/09 01:14:22;;;;;;;;;;;;;;;20.31;37.10;94035.22;10383950;28;2057;-43
2023/01/09 01:19:23;;;;;;;;;;;;;;;20.31;36.45;94056.25;10386256;28;2038;-46
2023/01/09 01:24:23;;;;;;;;;;;;;;;20.28;37.03;94060.28;10381805;28;2014;-45
2023/01/09 01:29:23;;;;;;;;;;;;;;;20.29;36.97;94045.28;10378962;28;2292;-47
2023/01/09 01:34:23;;;;;;;;;;;;;;;20.27;37.23;94029.81;10381742;28;2113;-41
2023/01/09 01:39:24;;;;;;;;;;;;;;;20.27;36.83;94042.19;10382635;28;2107;-43
2023/01/09 01:44:43;;;;;;;;;;;;;;;20.24;36.93;94043.56;10380117;28;2078;-46
2023/01/09 01:49:44;;;;;;;;;;;;;;;20.24;37.38;94048.06;10380385;28;2098;-46
2023/01/09 01:54:44;;;;;;;;;;;;;;;20.21;37.02;94040.81;10377077;28;2112;-43
2023/01/09 01:59:49;;;;;;;;;;;;;;;20.21;37.06;94036.31;10378655;28;2195;-44
2023/01/09 02:04:49;;;;;;;;;;;;;;;20.19;36.98;94038.50;10379076;28;2028;-44
2023/01/09 02:09:50;;;;;;;;;;;;;;;20.17;37.02;94024.81;10378241;28;2188;-44
2023/01/09 02:14:57;;;;;;;;;;;;;;;20.17;36.88;94037.22;10394981;28;2082;-46
2023/01/09 02:20:12;;;;;;;;;;;;;;;20.16;37.01;94043.56;10380027;28;1967;-44
2023/01/09 02:25:21;;;;;;;;;;;;;;;20.15;37.08;94048.03;10378939;28;2046;-43
2023/01/09 02:30:24;;;;;;;;;;;;;;;20.12;37.05;94048.66;10394557;28;2027;-45
2023/01/09 02:35:30;;;;;;;;;;;;;;;20.12;37.31;94043.41;10379419;28;2047;-46
2023/01/09 02:40:49;;;;;;;;;;;;;;;20.11;37.06;94046.34;10379365;28;1993;-43
2023/01/09 02:45:49;;;;;;;;;;;;;;;20.10;37.07;94042.16;10392953;28;2041;-45
2023/01/09 02:50:51;;;;;;;;;;;;;;;20.08;36.92;94046.97;10377223;28;2072;-45
2023/01/09 02:55:52;;;;;;;;;;;;;;;20.07;37.06;94032.28;10392635;28;2043;-43
2023/01/09 03:00:52;;;;;;;;;;;;;;;20.05;36.71;94024.69;10377386;28;2024;-45
2023/01/09 03:05:56;;;;;;;;;;;;;;;20.05;36.74;94029.94;10378721;28;2073;-43
2023/01/09 03:11:03;;;;;;;;;;;;;;;20.04;36.93;94035.53;10393915;28;2043;-43
2023/01/09 03:16:04;;;;;;;;;;;;;;;20.02;36.65;94035.06;10383335;28;2125;-44
2023/01/09 03:21:05;;;;;;;;;;;;;;;20.00;36.78;94035.38;10376220;28;2018;-44
2023/01/09 03:26:08;;;;;;;;;;;;;;;20.00;36.72;94024.06;10377815;28;1982;-44
2023/01/09 03:31:09;;;;;;;;;;;;;;;19.99;36.83;94027.81;10377277;28;2098;-44
2023/01/09 03:36:09;;;;;;;;;;;;;;;19.96;36.79;94028.41;10376901;28;2054;-43
2023/01/09 03:41:10;;;;;;;;;;;;;;;19.94;36.79;94025.31;10381055;28;2054;-47
2023/01/09 03:46:10;;;;;;;;;;;;;;;19.92;36.68;94036.16;10378265;28;2021;-43
2023/01/09 03:51:10;;;;;;;;;;;;;;;19.91;36.74;94029.34;10378551;28;2103;-44
2023/01/09 03:56:10;;;;;;;;;;;;;;;19.90;36.56;94022.53;10379755;28;2091;-46
2023/01/09 04:01:13;;;;;;;;;;;;;;;19.89;36.99;94020.97;10377579;28;2056;-44
2023/01/09 04:06:14;;;;;;;;;;;;;;;19.88;36.75;94037.06;10380903;28;1961;-44
2023/01/09 04:11:16;;;;;;;;;;;;;;;19.87;36.85;94040.78;10382504;28;2004;-44
2023/01/09 04:16:16;;;;;;;;;;;;;;;19.85;36.74;94029.78;10384265;28;2018;-43
2023/01/09 04:21:16;;;;;;;;;;;;;;;19.85;36.71;94048.97;10382527;28;2020;-45
2023/01/09 04:26:17;;;;;;;;;;;;;;;19.84;36.58;94051.94;10384523;28;2105;-42
2023/01/09 04:31:17;;;;;;;;;;;;;;;19.84;36.63;94062.44;10384361;28;1984;-42
2023/01/09 04:36:17;;;;;;;;;;;;;;;19.79;36.32;94076.50;10390615;28;2074;-46
2023/01/09 04:46:36;;;;;;;;;;;;;;;19.77;36.29;94106.81;10385581;28;2065;-45
2023/01/09 04:51:37;;;;;;;;;;;;;;;19.75;36.29;94120.28;10388530;28;1970;-44
2023/01/09 04:56:37;;;;;;;;;;;;;;;19.74;36.24;94112.69;10383320;28;2072;-45
2023/01/09 05:01:37;;;;;;;;;;;;;;;19.72;36.22;94123.50;10382494;28;2049;-46
2023/01/09 05:06:37;;;;;;;;;;;;;;;19.71;36.41;94126.44;10398082;28;2191;-44
2023/01/09 05:11:38;;;;;;;;;;;;;;;19.70;36.47;94138.06;10386121;28;1966;-46
2023/01/09 05:16:38;;;;;;;;;;;;;;;19.72;35.80;94149.03;10382252;28;2104;-44
2023/01/09 05:21:38;;;;;;;;;;;;;;;19.72;35.88;94177.97;10380450;28;2124;-47
2023/01/09 05:26:39;;;;;;;;;;;;;;;19.76;35.49;94184.16;10380578;28;2003;-46
2023/01/09 05:31:39;;;;;;;;;;;;;;;19.75;34.89;94196.53;10380336;28;2030;-42
2023/01/09 05:36:39;;;;;;;;;;;;;;;19.78;34.99;94205.66;10385885;28;2007;-44
2023/01/09 05:41:39;;;;;;;;;;;;;;;19.83;35.15;94211.53;10399250;28;2114;-44
2023/01/09 05:46:40;;;;;;;;;;;;;;;19.86;34.50;94225.94;10406127;28;1832;-46
2023/01/09 05:51:40;;;;;;;;;;;;;;;19.90;34.72;94234.75;10400437;28;1946;-47
2023/01/09 05:56:41;;;;;;;;;;;;;;;19.92;34.56;94243.13;10394653;28;2028;-44
2023/01/09 06:01:41;;;;;;;;;;;;;;;19.97;34.78;94250.88;10375237;28;2016;-45
2023/01/09 06:06:42;;;;;;;;;;;;;;;20.00;34.96;94251.03;10380604;28;2084;-46
2023/01/09 06:11:42;;;;;;;;;;;;;;;20.04;34.98;94249.34;10381724;28;2054;-46
2023/01/09 06:16:42;;;;;;;;;;;;;;;20.07;35.56;94267.13;10380323;28;2056;-44
2023/01/09 06:21:43;;;;;;;;;;;;;;;20.12;36.26;94279.38;10375749;28;2032;-44
2023/01/09 06:26:43;;;;;;;;;;;;;;;20.14;35.76;94279.84;10378414;28;2086;-46
2023/01/09 06:31:43;;;;;;;;;;;;;;;20.13;35.30;94296.72;10376542;28;2082;-44
2023/01/09 06:36:43;;;;;;;;;;;;;;;20.13;35.31;94299.38;10381772;28;1989;-45
2023/01/09 06:41:44;;;;;;;;;;;;;;;20.13;35.00;94312.50;10380269;28;2090;-47
2023/01/09 06:46:44;;;;;;;;;;;;;;;20.13;35.01;94323.78;10379739;28;2022;-44
2023/01/09 06:51:44;;;;;;;;;;;;;;;20.14;34.73;94329.84;10378744;28;2008;-45
2023/01/09 06:56:45;;;;;;;;;;;;;;;20.16;34.94;94331.09;10379778;28;2030;-45
2023/01/09 07:01:45;;;;;;;;;;;;;;;20.16;34.90;94338.19;10379181;28;2540;-44
2023/01/09 07:06:48;;;;;;;;;;;;;;;20.16;34.35;94348.72;10378177;28;2050;-44
2023/01/09 07:11:48;;;;;;;;;;;;;;;20.16;34.21;94365.28;10377569;28;2125;-44
2023/01/09 07:16:48;;;;;;;;;;;;;;;20.18;34.64;94367.59;10382263;28;2069;-44
2023/01/09 07:21:49;;;;;;;;;;;;;;;20.20;34.49;94376.00;10376350;28;2026;-44
2023/01/09 07:26:49;;;;;;;;;;;;;;;20.18;34.01;94378.91;10376767;28;2058;-45
2023/01/09 07:31:49;;;;;;;;;;;;;;;20.19;34.33;94404.19;10377823;28;2077;-45
2023/01/09 07:36:50;;;;;;;;;;;;;;;20.21;34.05;94411.78;10377974;28;2050;-43
2023/01/09 07:41:50;;;;;;;;;;;;;;;20.24;35.98;94429.56;10379377;28;2048;-44
2023/01/09 07:46:51;;;;;;;;;;;;;;;20.22;35.50;94443.03;10376308;28;2088;-44
2023/01/09 07:51:51;;;;;;;;;;;;;;;20.23;35.95;94444.59;10377541;28;2068;-45
2023/01/09 07:56:51;;;;;;;;;;;;;;;20.25;36.21;94457.44;10380025;28;2045;-43
2023/01/09 08:01:52;;;;;;;;;;;;;;;20.24;36.00;94458.50;10377284;28;2053;-44
2023/01/09 08:06:52;;;;;;;;;;;;;;;20.24;36.12;94469.81;10377487;28;2010;-46
2023/01/09 08:11:52;;;;;;;;;;;;;;;20.24;35.97;94487.47;10378145;28;2008;-44
2023/01/09 08:16:52;;;;;;;;;;;;;;;20.25;35.98;94486.41;10378376;28;2101;-42
2023/01/09 08:21:53;;;;;;;;;;;;;;;20.24;36.10;94474.31;10374178;28;2092;-45
2023/01/09 08:26:53;;;;;;;;;;;;;;;20.23;35.94;94491.97;10374070;28;2013;-45
2023/01/09 08:31:53;;;;;;;;;;;;;;;20.22;35.98;94500.94;10376004;28;2094;-43
2023/01/09 08:36:54;;;;;;;;;;;;;;;20.21;35.77;94507.28;10376995;28;2012;-46
2023/01/09 08:47:14;;;;;;;;;;;;;;;20.18;35.79;94515.72;10377028;28;2021;-43
2023/01/09 08:52:14;;;;;;;;;;;;;;;20.18;35.64;94512.31;10375337;28;2050;-44
2023/01/09 08:57:14;;;;;;;;;;;;;;;20.15;35.56;94523.47;10379059;28;2050;-46
2023/01/09 09:02:15;;;;;;;;;;;;;;;20.13;35.51;94504.56;10384152;28;1987;-44
2023/01/09 09:07:15;;;;;;;;;;;;;;;20.12;35.44;94524.03;10383018;28;2036;-45
2023/01/09 09:12:15;;;;;;;;;;;;;;;20.12;35.26;94521.41;10383443;28;2024;-44
2023/01/09 09:17:16;;;;;;;;;;;;;;;20.15;34.98;94521.56;10388004;28;2283;-46
2023/01/09 09:22:16;;;;;;;;;;;;;;;20.17;35.22;94521.31;10381206;28;2020;-44
2023/01/09 09:27:16;;;;;;;;;;;;;;;20.14;35.14;94520.03;10383500;28;2049;-45
2023/01/09 09:32:17;;;;;;;;;;;;;;;20.13;35.30;94517.72;10380227;28;2141;-45
2023/01/09 09:37:17;;;;;;;;;;;;;;;20.13;35.23;94538.75;10381652;28;1989;-43
2023/01/09 09:47:55;;;;;;;;;;;;;;;20.08;35.14;94546.75;10383331;28;2040;-44
2023/01/09 09:52:58;;;;;;;;;;;;;;;20.06;35.29;94538.41;10380720;28;2024;-45
2023/01/09 09:57:59;;;;;;;;;;;;;;;20.03;35.28;94534.50;10381710;28;2202;-43
2023/01/09 10:03:01;;;;;;;;;;;;;;;20.03;34.93;94533.75;10393097;28;2127;-44
2023/01/09 10:08:09;;;;;;;;;;;;;;;19.99;35.08;94535.41;10379142;28;2145;-46
2023/01/09 10:18:44;;;;;;;;;;;;;;;19.96;35.95;94513.13;10394868;28;2031;-45
2023/01/09 10:23:54;;;;;;;;;;;;;;;19.96;35.95;94520.22;10381381;28;2037;-44
2023/01/09 10:29:00;;;;;;;;;;;;;;;19.98;36.30;94505.69;10377176;28;1956;-43
2023/01/09 10:34:00;;;;;;;;;;;;;;;19.97;36.88;94508.63;10379689;28;2001;-43
2023/01/09 10:39:03;;;;;;;;;;;;;;;20.01;37.44;94514.84;10380393;28;2054;-43
2023/01/09 10:44:06;;;;;;;;;;;;;;;19.95;37.06;94521.28;10396284;28;2098;-44
2023/01/09 10:49:10;;;;;;;;;;;;;;;19.92;37.56;94519.25;10378763;28;2105;-43
2023/01/09 10:54:12;;;;;;;;;;;;;;;19.90;36.75;94513.53;10381472;28;2385;-43
2023/01/09 10:59:12;;;;;;;;;;;;;;;19.88;36.76;94520.94;10380807;28;2144;-42
2023/01/09 11:04:17;;;;;;;;;;;;;;;19.87;37.07;94514.09;10379597;28;1976;-43
2023/01/09 11:09:17;;;;;;;;;;;;;;;19.87;37.68;94499.13;10381852;28;2016;-44
2023/01/09 11:14:30;;;;;;;;;;;;;;;19.89;37.03;94506.69;10382604;28;1964;-43
2023/01/09 11:19:32;;;;;;;;;;;;;;;19.87;37.50;94509.63;10381007;28;2107;-43
2023/01/09 11:24:32;;;;;;;;;;;;;;;19.87;37.55;94507.00;10379097;28;1968;-43
2023/01/09 11:29:32;;;;;;;;;;;;;;;19.86;37.51;94510.72;10394548;28;2074;-43
2023/01/09 11:34:33;;;;;;;;;;;;;;;19.84;37.34;94512.09;10377298;28;1961;-43
2023/01/09 11:39:34;;;;;;;;;;;;;;;19.82;37.66;94511.59;10380199;28;2219;-42
2023/01/09 11:44:34;;;;;;;;;;;;;;;19.76;37.74;94518.84;10394377;28;2042;-43
2023/01/09 11:49:34;;;;;;;;;;;;;;;19.76;37.68;94510.97;10378064;28;2123;-42
2023/01/09 11:54:35;;;;;;;;;;;;;;;19.75;37.14;94500.72;10390162;28;2226;-42
2023/01/09 11:59:36;;;;;;;;;;;;;;;19.76;36.95;94504.91;10379273;28;1969;-44
2023/01/09 12:04:39;;;;;;;;;;;;;;;19.74;36.97;94499.19;10375192;28;2075;-43
2023/01/09 12:09:43;;;;;;;;;;;;;;;19.69;36.99;94513.22;10376262;28;2113;-44
2023/01/09 12:14:50;;;;;;;;;;;;;;;19.68;36.95;94500.38;10380423;28;2009;-42
2023/01/09 12:20:09;;;;;;;;;;;;;;;19.70;37.06;94511.38;10372392;28;1974;-42
2023/01/09 12:25:09;;;;;;;;;;;;;;;19.61;36.79;94521.00;10375108;28;2400;-44
2023/01/09 12:30:09;;;;;;;;;;;;;;;19.59;37.10;94528.41;10377012;28;2005;-43
2023/01/09 12:35:22;;;;;;;;;;;;;;;19.55;36.82;94528.25;10385817;28;2298;-43
2023/01/09 12:40:32;;;;;;;;;;;;;;;19.54;36.83;94533.81;10385937;28;1954;-44
2023/01/09 12:45:51;;;;;;;;;;;;;;;19.52;36.82;94528.03;10386168;28;1989;-43
2023/01/09 12:51:07;;;;;;;;;;;;;;;19.49;36.45;94526.78;10384828;28;2180;-44
2023/01/09 12:56:17;;;;;;;;;;;;;;;19.46;36.78;94519.50;10388588;28;2016;-43
2023/01/09 13:01:28;;;;;;;;;;;;;;;19.45;36.63;94517.94;10395874;28;2016;-43
2023/01/09 13:06:28;;;;;;;;;;;;;;;19.43;36.86;94530.59;10385198;28;2017;-45
2023/01/09 13:11:31;;;;;;;;;;;;;;;19.42;36.85;94523.78;10396197;28;1992;-45
2023/01/09 13:16:40;;;;;;;;;;;;;;;19.42;36.95;94527.19;10403560;28;2063;-43
2023/01/09 13:21:40;;;;;;;;;;;;;;;19.41;37.20;94517.75;10382978;28;2021;-43
2023/01/09 13:27:07;;;;;;;;;;;;;;;19.39;37.44;94511.25;10384714;28;1982;-44
2023/01/09 13:32:10;;;;;;;;;;;;;;;19.41;37.27;94501.22;10384269;28;2116;-43
2023/01/09 13:37:39;;;;;;;;;;;;;;;19.38;37.09;94509.69;10382950;28;2101;-46
2023/01/09 13:42:46;;;;;;;;;;;;;;;19.34;37.15;94506.09;10381496;28;2008;-43
2023/01/09 13:47:46;;;;;;;;;;;;;;;19.35;37.21;94505.03;10382289;28;1977;-43
2023/01/09 13:52:46;;;;;;;;;;;;;;;19.35;37.28;94505.03;10380862;28;2038;-43
2023/01/09 13:58:06;;;;;;;;;;;;;;;19.32;36.86;94503.72;10382914;28;2111;-43
2023/01/09 14:03:07;;;;;;;;;;;;;;;19.30;36.93;94503.25;10382987;28;2023;-44
2023/01/09 14:08:10;;;;;;;;;;;;;;;19.30;37.04;94508.50;10382285;28;2034;-44
2023/01/09 14:13:14;;;;;;;;;;;;;;;19.27;36.85;94511.72;10382721;28;2063;-43
2023/01/09 14:18:14;;;;;;;;;;;;;;;19.25;37.33;94520.94;10381455;28;2025;-42
2023/01/09 14:23:24;;;;;;;;;;;;;;;19.21;37.32;94512.88;10382646;28;2110;-43
2023/01/09 14:28:26;;;;;;;;;;;;;;;19.27;37.26;94522.22;10396518;28;2102;-43
2023/01/09 14:33:27;;;;;;;;;;;;;;;19.24;37.35;94524.66;10395520;28;2078;-44
2023/01/09 14:38:34;;;;;;;;;;;;;;;19.21;37.28;94528.66;10379473;28;2055;-43
2023/01/09 14:43:51;;;;;;;;;;;;;;;19.15;37.46;94537.69;10398982;28;2003;-45
2023/01/09 14:48:57;;;;;;;;;;;;;;;19.19;37.02;94546.56;10384824;28;2097;-43
2023/01/09 14:53:59;;;;;;;;;;;;;;;19.19;36.21;94538.69;10378992;28;2079;-45
2023/01/09 14:59:10;;;;;;;;;;;;;;;19.20;35.82;94548.13;10380225;28;1977;-45
2023/01/09 15:04:23;;;;;;;;;;;;;;;19.21;36.17;94551.50;10377792;28;2145;-44
2023/01/09 15:09:23;;;;;;;;;;;;;;;19.23;35.89;94555.41;10379195;28;2398;-47
2023/01/09 15:14:31;;;;;;;;;;;;;;;19.26;35.87;94565.34;10386006;28;2251;-43
2023/01/09 15:19:31;;;;;;;;;;;;;;;19.31;35.92;94565.22;10392750;28;2522;-45
2023/01/09 15:24:33;;;;;;;;;;;;;;;19.35;35.97;94555.72;10393387;28;2043;-44
2023/01/09 15:29:33;;;;;;;;;;;;;;;19.38;35.87;94556.97;10394913;28;2060;-44
2023/01/09 15:34:33;;;;;;;;;;;;;;;19.41;35.75;94554.53;10375932;28;2010;-43
2023/01/09 15:39:34;;;;;;;;;;;;;;;19.53;35.32;94561.94;10377106;28;2124;-47
2023/01/09 15:44:36;;;;;;;;;;;;;;;19.48;35.82;94564.66;10381295;28;1938;-44
2023/01/09 15:49:36;;;;;;;;;;;;;;;19.49;38.85;94574.09;10392043;28;2016;-45
2023/01/09 15:54:37;;;;;;;;;;;;;;;19.45;39.27;94589.66;10377075;28;2195;-44
2023/01/09 15:59:37;;;;;;;;;;;;;;;19.44;40.91;94590.75;10393385;28;2095;-44
2023/01/09 16:04:39;;;;;;;;;;;;;;;19.43;40.37;94588.44;10373980;28;2235;-43
2023/01/09 16:09:39;;;;;;;;;;;;;;;19.39;40.74;94603.22;10399782;28;2142;-43
2023/01/09 16:14:42;;;;;;;;;;;;;;;19.37;38.76;94619.25;10405461;28;2047;-44
2023/01/09 16:19:50;;;;;;;;;;;;;;;19.38;39.34;94622.69;10387857;28;1944;-44
2023/01/09 16:24:53;;;;;;;;;;;;;;;19.38;40.23;94610.31;10385801;28;2010;-46
2023/01/09 16:29:54;;;;;;;;;;;;;;;19.40;40.88;94617.91;10385359;28;2103;-44
2023/01/09 16:34:59;;;;;;;;;;;;;;;19.38;39.55;94628.72;10399480;28;2020;-43
2023/01/09 16:40:17;;;;;;;;;;;;;;;19.37;39.85;94611.38;10385510;28;2104;-43
2023/01/09 16:45:17;;;;;;;;;;;;;;;19.39;39.73;94638.13;10387886;28;2025;-43
2023/01/09 16:50:17;;;;;;;;;;;;;;;19.39;39.81;94645.28;10399471;28;1982;-43
2023/01/09 16:55:18;;;;;;;;;;;;;;;19.38;41.33;94646.31;10381760;28;2034;-44
2023/01/09 17:00:18;;;;;;;;;;;;;;;19.41;40.56;94661.53;10382939;28;2108;-43
2023/01/09 17:05:19;;;;;;;;;;;;;;;19.58;41.57;94668.81;10382481;28;1976;-44
2023/01/09 17:10:20;;;;;;;;;;;;;;;19.67;39.99;94669.69;10383892;28;2222;-44
2023/01/09 17:15:20;;;;;;;;;;;;;;;19.74;39.62;94677.97;10383093;28;1989;-43
2023/01/09 17:20:21;;;;;;;;;;;;;;;19.81;38.43;94679.13;10382703;28;2067;-44
2023/01/09 17:30:40;;;;;;;;;;;;;;;20.00;40.37;94707.94;10383063;28;1991;-44
2023/01/09 17:35:41;;;;;;;;;;;;;;;20.01;39.27;94718.16;10381495;28;2109;-43
2023/01/09 17:40:41;;;;;;;;;;;;;;;20.01;38.89;94725.28;10406771;28;1890;-45
2023/01/09 17:45:41;;;;;;;;;;;;;;;20.05;38.22;94731.50;10404528;28;1914;-44
2023/01/09 17:50:42;;;;;;;;;;;;;;;20.04;38.68;94741.25;10394558;28;1937;-46
2023/01/09 17:55:42;;;;;;;;;;;;;;;20.05;37.38;94745.44;10378949;28;2045;-43
2023/01/09 18:00:43;;;;;;;;;;;;;;;20.05;37.39;94742.03;10393423;28;1973;-43
2023/01/09 18:05:43;;;;;;;;;;;;;;;20.08;37.44;94750.13;10381483;28;2128;-44
2023/01/09 18:10:47;;;;;;;;;;;;;;;20.10;37.59;94755.06;10384314;28;2004;-45
2023/01/09 18:15:47;;;;;;;;;;;;;;;20.09;37.01;94758.78;10383073;28;2158;-43
2023/01/09 18:20:48;;;;;;;;;;;;;;;20.00;37.56;94763.97;10378958;28;1997;-46
2023/01/09 18:25:49;;;;;;;;;;;;;;;19.93;37.79;94781.97;10383760;28;1993;-43
2023/01/09 18:30:49;;;;;;;;;;;;;;;19.89;37.58;94778.38;10380176;28;2087;-44
2023/01/09 18:35:50;;;;;;;;;;;;;;;19.85;37.71;94787.13;10383271;28;1974;-43
2023/01/09 18:40:50;;;;;;;;;;;;;;;19.81;38.66;94799.28;10382710;28;2016;-43
2023/01/09 18:45:50;;;;;;;;;;;;;;;19.77;38.05;94793.06;10377299;28;2010;-45
2023/01/09 18:50:50;;;;;;;;;;;;;;;19.73;37.85;94810.50;10381932;28;2005;-44
2023/01/09 18:55:51;;;;;;;;;;;;;;;19.71;37.66;94813.41;10379172;28;2088;-43
2023/01/09 19:00:53;;;;;;;;;;;;;;;19.71;37.85;94818.69;10381572;28;1941;-43
2023/01/09 19:05:53;;;;;;;;;;;;;;;19.71;39.79;94828.41;10380173;28;2166;-45
2023/01/09 19:10:53;;;;;;;;;;;;;;;19.68;37.79;94832.38;10392824;28;2035;-46
2023/01/09 19:15:57;;;;;;;;;;;;;;;19.66;37.50;94844.28;10381145;28;1964;-45
2023/01/09 19:20:57;;;;;;;;;;;;;;;19.65;37.96;94850.59;10380082;28;1999;-44
2023/01/09 19:26:01;;;;;;;;;;;;;;;19.63;37.91;94858.00;10377169;28;2042;-43
2023/01/09 19:31:02;;;;;;;;;;;;;;;19.63;37.58;94871.94;10378979;28;2073;-46
2023/01/09 19:36:02;;;;;;;;;;;;;;;19.64;37.76;94872.72;10377043;28;1970;-44
2023/01/09 19:41:07;;;;;;;;;;;;;;;19.61;37.36;94865.38;10382240;28;2089;-46
2023/01/09 19:46:08;;;;;;;;;;;;;;;19.61;36.97;94886.41;10383145;28;2068;-47
2023/01/09 19:51:10;;;;;;;;;;;;;;;19.59;37.09;94906.97;10380658;28;2008;-44
2023/01/09 19:56:11;;;;;;;;;;;;;;;19.61;37.13;94905.59;10378544;28;2034;-44
2023/01/09 20:01:12;;;;;;;;;;;;;;;19.59;37.42;94904.31;10377823;28;2069;-42
2023/01/09 20:06:16;;;;;;;;;;;;;;;19.62;37.14;94919.53;10390551;28;2081;-42
2023/01/09 20:11:16;;;;;;;;;;;;;;;19.60;37.68;94921.69;10381295;28;2102;-44
2023/01/09 20:16:18;;;;;;;;;;;;;;;19.57;37.43;94924.88;10378018;28;1981;-44
2023/01/09 20:21:21;;;;;;;;;;;;;;;19.54;36.97;94925.44;10379089;28;2040;-45
2023/01/09 20:26:22;;;;;;;;;;;;;;;19.54;37.28;94928.09;10374801;28;1973;-43
2023/01/09 20:31:22;;;;;;;;;;;;;;;19.50;37.14;94946.25;10377383;28;2156;-46
2023/01/09 20:36:27;;;;;;;;;;;;;;;19.55;37.99;94953.28;10375910;28;2018;-44
2023/01/09 20:41:28;;;;;;;;;;;;;;;19.58;37.69;94957.97;10382049;28;1986;-44
2023/01/09 20:46:29;;;;;;;;;;;;;;;19.55;36.97;94969.84;10378179;28;2047;-44
2023/01/09 20:51:30;;;;;;;;;;;;;;;19.49;37.13;94963.09;10378208;28;2073;-42
2023/01/09 20:56:30;;;;;;;;;;;;;;;19.48;36.81;94964.16;10383635;28;2083;-42
2023/01/09 21:01:30;;;;;;;;;;;;;;;19.44;36.55;94969.22;10382377;28;2074;-42
2023/01/09 21:06:30;;;;;;;;;;;;;;;19.42;36.40;94976.59;10388748;28;2130;-41
2023/01/09 21:11:31;;;;;;;;;;;;;;;19.42;36.54;94983.69;10387941;28;2042;-43
2023/01/09 21:16:31;;;;;;;;;;;;;;;19.38;36.28;94986.13;10407363;28;2088;-41
2023/01/09 21:21:31;;;;;;;;;;;;;;;19.37;36.57;94984.53;10385032;28;2125;-43
2023/01/09 21:26:32;;;;;;;;;;;;;;;19.36;36.93;95003.22;10383741;28;2055;-42
2023/01/09 21:31:33;;;;;;;;;;;;;;;19.33;35.97;95007.19;10383670;28;1954;-42
2023/01/09 21:36:34;;;;;;;;;;;;;;;19.28;35.28;95012.50;10384899;28;2022;-44
2023/01/09 21:46:56;;;;;;;;;;;;;;;19.35;37.09;95026.09;10382636;28;2036;-43
2023/01/09 21:51:56;;;;;;;;;;;;;;;19.33;36.52;95025.59;10381224;28;2099;-43
2023/01/09 21:56:57;;;;;;;;;;;;;;;19.31;36.33;95034.78;10384761;28;1953;-43
2023/01/09 22:01:58;;;;;;;;;;;;;;;19.29;36.31;95026.41;10381047;28;1950;-43
2023/01/09 22:06:58;;;;;;;;;;;;;;;19.26;36.17;95030.41;10382806;28;2171;-43
2023/01/09 22:11:58;;;;;;;;;;;;;;;19.26;36.19;95051.41;10383033;28;1973;-43
2023/01/09 22:16:58;;;;;;;;;;;;;;;19.25;36.05;95047.22;10380992;28;2022;-43
2023/01/09 22:22:01;;;;;;;;;;;;;;;19.24;36.53;95055.38;10396535;28;1985;-43
2023/01/09 22:27:01;;;;;;;;;;;;;;;19.21;36.26;95067.22;10382764;28;2104;-44
2023/01/09 22:32:02;;;;;;;;;;;;;;;19.19;36.35;95069.34;10381913;28;2106;-46
2023/01/09 22:37:02;;;;;;;;;;;;;;;19.19;36.07;95071.19;10380879;28;2080;-48
2023/01/09 22:42:02;;;;;;;;;;;;;;;19.16;36.24;95072.56;10385714;28;2060;-45
2023/01/09 22:47:03;;;;;;;;;;;;;;;19.13;36.08;95080.19;10379925;28;2236;-44
2023/01/09 22:52:03;;;;;;;;;;;;;;;19.10;35.90;95089.41;10381039;28;2112;-43
2023/01/09 22:57:03;;;;;;;;;;;;;;;19.10;35.76;95089.41;10380536;28;2029;-46
2023/01/09 23:02:03;;;;;;;;;;;;;;;19.09;36.39;95090.50;10372008;28;1991;-44
2023/01/09 23:07:05;;;;;;;;;;;;;;;19.10;36.77;95088.66;10380447;28;2198;-47
2023/01/09 23:12:05;;;;;;;;;;;;;;;19.06;36.28;95100.78;10384954;28;2246;-43
2023/01/09 23:17:06;;;;;;;;;;;;;;;19.06;36.64;95111.28;10377961;28;2042;-44
2023/01/09 23:22:06;;;;;;;;;;;;;;;19.05;36.52;95118.38;10376712;28;2105;-44
2023/01/09 23:27:06;;;;;;;;;;;;;;;19.03;36.57;95115.25;10379209;28;2092;-45
2023/01/09 23:32:07;;;;;;;;;;;;;;;19.01;36.45;95122.63;10378895;28;2082;-44
2023/01/09 23:37:08;;;;;;;;;;;;;;;19.00;36.87;95125.53;10377050;28;2038;-43
2023/01/09 23:47:28;;;;;;;;;;;;;;;18.95;36.54;95129.00;10399493;28;2028;-44
2023/01/09 23:52:28;;;;;;;;;;;;;;;18.94;36.46;95137.91;10376289;28;2153;-44
2023/01/09 23:57:28;;;;;;;;;;;;;;;18.93;36.98;95139.00;10376631;28;2111;-48
